Airfield :
LOGIN :

Register | Disclaimer

   EN    FR    IT 

 










Legend :    VFR   Marginal VFR   IFR   Intensive IFR   Very Intensive IFR
Visi :
Ceiling :
>= 8 km
>= 3000ft
5 to 8 km
1000 to 3000 ft
1500m to 5 km
500 to 1000 ft
800 to 1500m
200 to 500 ft
< 800m
< 200 ft
Symbols :   Thunderstorms  Fog  Heavy snow  Heavy precipitations  Wind > 20 kt
SIGMETs :     Misc.  Thunderstorms  Icing  Turbulence  Mountain Waves  Volcanic Ashes






- Airport Elevation : 202 ft
- IATA code : LGW


EGKK - London Gatwick

CURRENT METAR :
  • 221450Z 31008KT 9999 BKN015 05/02 Q1037

EXPIRED METARs :
  • 221420Z 32008KT 9999 BKN016 06/02 Q1037
  • 221350Z 32005KT 280V350 9999 BKN016 06/02 Q1037
  • 221320Z 33007KT 9999 BKN017 06/02 Q1037
  • 221250Z 30007KT 9999 BKN016 06/02 Q1037
  • 221220Z 30007KT 9999 BKN015 06/02 Q1037

TAF TAF EGKK
Valid from the 22 at 12:00 until the 23 at 18:00 UTC


221101Z 2212/2318 30006KT 9999 BKN020
TEMPO 2212/2218 BKN010
PROB30 2223/2318 7000 BKN008



MET'MAP, your aeronautical weather chart ! - Copyright ORBIFLY December 2007 - Disclaimer

ORBIFLY MET'MAP TEAM :

Programming & Development : Alexandra Zaïnal
Concept & original design : Baudouin d'Aumeries
Assistance for programming : Marc-Olivier Méhu
Technical & hardware support : Manuel Goepfert

Contact : metmap@orbifly.com




SOURCES & CREDITS :

   NOAA